Time;durP1;ratioP1;P1;durP2;ratioP2;P2;SDS_P1;SDS_P2;PMS_P1;PMS_P2;Temp;Humidity;BMP_temperature;BMP_pressure;BME280_temperature;BME280_humidity;BME280_pressure;Samples;Min_cycle;Max_cycle;Signal;HPM_P1;HPM_P2
2022/08/09 00:00:36;;;;;;;6.53;3.60;;;15.40;99.90;;;;;;2603310;54;20886;31
2022/08/09 00:03:19;;;;;;;5.75;3.60;;;15.40;99.90;;;;;;2602944;54;19935;31
2022/08/09 00:06:18;;;;;;;4.97;3.33;;;15.30;99.90;;;;;;2602935;54;20027;31
2022/08/09 00:08:56;;;;;;;7.95;3.50;;;15.30;99.90;;;;;;2602897;54;20917;31
2022/08/09 00:11:31;;;;;;;4.80;2.55;;;15.30;99.90;;;;;;2602927;54;20862;31
2022/08/09 00:14:26;;;;;;;6.47;3.28;;;15.30;99.90;;;;;;2603385;54;20093;31
2022/08/09 00:17:12;;;;;;;5.63;3.60;;;15.30;99.90;;;;;;2603808;54;20081;31
2022/08/09 00:20:10;;;;;;;6.57;3.15;;;15.30;99.90;;;;;;2603717;54;20023;31
2022/08/09 00:22:48;;;;;;;5.68;3.30;;;15.20;99.90;;;;;;2603904;54;20045;31
2022/08/09 00:25:24;;;;;;;4.13;3.10;;;15.20;99.90;;;;;;2622282;46;20913;31
2022/08/09 00:28:06;;;;;;;6.55;3.40;;;15.20;99.90;;;;;;2622231;46;20728;31
2022/08/09 00:30:42;;;;;;;;;;;15.10;99.90;;;;;;2604146;54;20037;31
2022/08/09 00:33:18;;;;;;;3.72;2.60;;;15.20;99.90;;;;;;2622451;46;20000;31
2022/08/09 00:36:06;;;;;;;4.90;2.40;;;15.20;99.90;;;;;;2603655;54;20038;31
2022/08/09 00:38:44;;;;;;;;;;;15.10;99.90;;;;;;2603889;54;20041;31
2022/08/09 00:41:24;;;;;;;3.90;2.53;;;15.10;99.90;;;;;;2622182;46;20693;31
2022/08/09 00:44:18;;;;;;;3.95;2.20;;;15.00;99.90;;;;;;2603883;54;20088;31
2022/08/09 00:47:01;;;;;;;5.30;2.83;;;15.00;99.90;;;;;;2622044;46;20777;31
2022/08/09 00:49:38;;;;;;;4.20;2.63;;;15.00;99.90;;;;;;2603784;54;20023;31
2022/08/09 00:52:13;;;;;;;5.75;2.83;;;15.00;99.90;;;;;;2603842;54;20147;31
2022/08/09 00:54:55;;;;;;;4.55;3.33;;;15.00;99.90;;;;;;2603718;54;20026;31
2022/08/09 00:57:29;;;;;;;4.05;2.25;;;14.90;99.90;;;;;;2603676;54;20026;31
2022/08/09 01:00:11;;;;;;;3.40;2.50;;;15.00;99.90;;;;;;2621892;46;20890;31
2022/08/09 01:02:58;;;;;;;5.95;2.90;;;14.90;99.90;;;;;;2603541;54;20780;31
2022/08/09 01:05:40;;;;;;;6.00;2.78;;;14.90;99.90;;;;;;2603501;54;20085;31
2022/08/09 01:08:29;;;;;;;3.80;2.22;;;14.90;99.90;;;;;;2603774;54;20861;31
2022/08/09 01:11:11;;;;;;;7.40;3.00;;;14.80;99.90;;;;;;2603149;54;20034;31
2022/08/09 01:13:50;;;;;;;4.85;2.97;;;14.90;99.90;;;;;;2603520;54;20870;31
2022/08/09 01:16:34;;;;;;;4.50;2.60;;;14.80;99.90;;;;;;2603758;54;20026;31
2022/08/09 01:19:18;;;;;;;2.80;1.88;;;14.80;99.90;;;;;;2622133;46;20163;31
2022/08/09 01:22:36;;;;;;;4.00;2.80;;;14.70;99.90;;;;;;2720645;39;21098;31
2022/08/09 01:25:18;;;;;;;4.20;2.07;;;14.70;99.90;;;;;;2603459;54;20026;31
2022/08/09 01:27:59;;;;;;;4.40;2.75;;;14.70;99.90;;;;;;2603624;54;20034;31
2022/08/09 01:30:37;;;;;;;5.07;2.80;;;14.70;99.90;;;;;;2603767;54;20153;31
2022/08/09 01:33:27;;;;;;;4.70;2.30;;;14.70;99.90;;;;;;2603586;54;20964;31
2022/08/09 01:36:04;;;;;;;3.42;2.50;;;14.60;99.90;;;;;;2622406;46;20037;31
2022/08/09 01:38:44;;;;;;;3.30;2.10;;;14.60;99.90;;;;;;2621950;46;20906;31
2022/08/09 01:41:21;;;;;;;3.83;2.50;;;14.60;99.90;;;;;;2603777;54;20832;31
2022/08/09 01:44:05;;;;;;;4.90;2.75;;;14.50;99.90;;;;;;2603506;54;20030;31
2022/08/09 01:46:40;;;;;;;3.50;2.65;;;14.60;99.90;;;;;;2702181;39;21006;31
2022/08/09 01:49:16;;;;;;;3.70;2.40;;;14.60;99.90;;;;;;2603515;54;20061;31
2022/08/09 01:51:56;;;;;;;4.10;2.25;;;14.40;99.90;;;;;;2603786;54;20885;31
2022/08/09 01:54:42;;;;;;;4.70;2.50;;;14.50;99.90;;;;;;2603737;54;20038;31
2022/08/09 01:57:18;;;;;;;4.65;2.50;;;14.50;99.90;;;;;;2603691;54;20588;31
2022/08/09 01:59:58;;;;;;;4.18;2.55;;;14.50;99.90;;;;;;2603504;54;20143;31
2022/08/09 02:02:52;;;;;;;3.22;2.42;;;14.50;99.90;;;;;;2702198;39;20993;31
2022/08/09 02:05:26;;;;;;;3.92;2.20;;;14.50;99.90;;;;;;2621969;46;20027;31
2022/08/09 02:08:22;;;;;;;3.75;2.70;;;14.40;99.90;;;;;;2603434;54;20033;31
2022/08/09 02:11:16;;;;;;;3.70;2.22;;;14.40;99.90;;;;;;2702156;39;21026;31
2022/08/09 02:13:49;;;;;;;4.38;2.55;;;14.50;99.90;;;;;;2773556;31;21186;31
2022/08/09 02:16:43;;;;;;;4.75;2.72;;;14.50;99.90;;;;;;2603322;54;20792;31
2022/08/09 02:19:37;;;;;;;4.80;3.35;;;14.50;99.90;;;;;;2603450;54;20088;31
2022/08/09 02:22:19;;;;;;;4.80;2.80;;;14.50;99.90;;;;;;2603379;54;20076;31
2022/08/09 02:25:02;;;;;;;4.55;2.78;;;14.50;99.90;;;;;;2603742;54;20042;31
2022/08/09 02:27:40;;;;;;;3.20;2.35;;;14.40;99.90;;;;;;2603509;54;20037;31
2022/08/09 02:30:33;;;;;;;4.93;2.47;;;14.50;99.90;;;;;;2603465;54;19935;31
2022/08/09 02:33:11;;;;;;;5.95;3.13;;;14.50;99.90;;;;;;2603436;54;20096;31
2022/08/09 02:35:52;;;;;;;8.50;3.00;;;14.50;99.90;;;;;;2603247;54;20059;31
2022/08/09 02:38:39;;;;;;;6.82;2.53;;;14.50;99.90;;;;;;2621349;47;20165;31
2022/08/09 02:41:25;;;;;;;8.02;3.22;;;14.60;99.90;;;;;;2603419;54;20081;31
2022/08/09 02:44:00;;;;;;;4.45;3.60;;;14.50;99.90;;;;;;2701273;39;21106;31
2022/08/09 02:46:43;;;;;;;8.40;3.63;;;14.50;99.90;;;;;;2603342;54;20867;31
2022/08/09 02:49:24;;;;;;;6.30;3.45;;;14.50;99.90;;;;;;2603456;54;20128;31
2022/08/09 02:52:11;;;;;;;4.30;2.72;;;14.50;99.90;;;;;;2603509;54;20061;31
2022/08/09 02:54:46;;;;;;;4.63;2.38;;;14.50;99.90;;;;;;2603277;54;20022;31
2022/08/09 02:57:27;;;;;;;5.00;2.72;;;14.50;99.90;;;;;;2603538;54;20046;31
2022/08/09 03:00:15;;;;;;;3.40;2.70;;;14.60;99.90;;;;;;2603352;54;20877;31
2022/08/09 03:02:59;;;;;;;3.70;2.45;;;14.60;99.90;;;;;;2603233;54;20145;31
2022/08/09 03:05:37;;;;;;;5.05;3.33;;;14.60;99.90;;;;;;2603217;54;20077;31
2022/08/09 03:08:12;;;;;;;8.27;3.13;;;14.70;99.90;;;;;;2603268;54;20190;31
2022/08/09 03:10:47;;;;;;;10.10;3.50;;;14.60;99.90;;;;;;2603265;54;20057;31
2022/08/09 03:13:24;;;;;;;6.78;3.25;;;14.60;99.90;;;;;;2603299;54;20121;31
2022/08/09 03:16:19;;;;;;;6.65;2.80;;;14.70;99.90;;;;;;2603092;54;20030;31
2022/08/09 03:18:54;;;;;;;6.18;2.63;;;14.50;99.90;;;;;;2603242;54;20094;31
2022/08/09 03:21:31;;;;;;;4.23;2.40;;;14.60;99.90;;;;;;2603366;54;20034;31
2022/08/09 03:24:12;;;;;;;5.45;2.50;;;14.60;99.90;;;;;;2603234;54;20046;31
2022/08/09 03:27:06;;;;;;;7.50;2.53;;;14.60;99.90;;;;;;2603307;54;20868;31
2022/08/09 03:29:40;;;;;;;4.78;3.13;;;14.70;99.90;;;;;;2603044;54;20950;31
2022/08/09 03:32:33;;;;;;;5.43;3.10;;;14.60;99.90;;;;;;2701409;39;20393;31
2022/08/09 03:35:11;;;;;;;5.35;3.25;;;14.60;99.90;;;;;;2621869;47;20116;31
2022/08/09 03:37:59;;;;;;;6.38;3.20;;;14.60;99.90;;;;;;2701825;39;22081;31
2022/08/09 03:40:33;;;;;;;5.65;2.30;;;14.50;99.90;;;;;;2603133;54;20065;31
2022/08/09 03:43:09;;;;;;;7.00;3.20;;;14.60;99.90;;;;;;2621339;47;20920;31
2022/08/09 03:45:44;;;;;;;5.13;3.50;;;14.60;99.90;;;;;;2603084;54;20046;31
2022/08/09 03:48:39;;;;;;;6.15;3.75;;;14.60;99.90;;;;;;2603360;54;20038;31
2022/08/09 03:51:26;;;;;;;5.90;3.67;;;14.70;99.90;;;;;;2604154;54;20831;31
2022/08/09 03:54:26;;;;;;;6.47;4.00;;;14.70;99.90;;;;;;2603885;54;20077;31
2022/08/09 03:57:03;;;;;;;6.85;3.63;;;14.70;99.90;;;;;;2702740;39;21063;31
2022/08/09 03:59:54;;;;;;;6.77;3.37;;;14.70;99.90;;;;;;2603988;54;20026;31
2022/08/09 04:02:44;;;;;;;5.30;3.80;;;14.70;99.90;;;;;;2603883;54;19958;31
2022/08/09 04:05:25;;;;;;;6.07;3.00;;;14.70;99.90;;;;;;2603734;54;20948;31
2022/08/09 04:08:01;;;;;;;6.00;4.05;;;14.80;99.90;;;;;;2604032;54;20864;31
2022/08/09 04:10:39;;;;;;;8.50;4.25;;;14.70;99.90;;;;;;2603966;54;20031;31
2022/08/09 04:13:15;;;;;;;12.43;4.20;;;14.80;99.90;;;;;;2603940;54;20153;31
2022/08/09 04:15:54;;;;;;;12.00;3.90;;;14.70;99.90;;;;;;2622263;46;20026;31
2022/08/09 04:18:49;;;;;;;8.02;3.90;;;14.90;99.90;;;;;;2603797;54;20077;31
2022/08/09 04:21:24;;;;;;;5.97;3.85;;;14.90;99.90;;;;;;2622721;46;20829;31
2022/08/09 04:23:59;;;;;;;8.83;3.50;;;14.90;99.90;;;;;;2603935;54;20037;31
2022/08/09 04:26:38;;;;;;;23.27;4.90;;;14.90;99.90;;;;;;2603874;54;20273;31
2022/08/09 04:29:12;;;;;;;11.18;3.70;;;15.00;99.90;;;;;;2603142;54;20065;31
2022/08/09 04:31:50;;;;;;;19.45;3.95;;;15.00;99.90;;;;;;2618798;46;20930;31
2022/08/09 04:34:32;;;;;;;8.20;4.60;;;15.20;99.90;;;;;;2609823;46;20026;31
2022/08/09 04:37:08;;;;;;;9.68;4.93;;;15.10;99.90;;;;;;2603747;54;20169;31
2022/08/09 04:39:43;;;;;;;11.25;4.07;;;15.20;99.90;;;;;;2603811;54;20034;31
2022/08/09 04:42:28;;;;;;;9.43;4.03;;;15.30;99.90;;;;;;2603711;54;20026;31
2022/08/09 04:45:02;;;;;;;7.65;3.72;;;15.30;99.90;;;;;;2702522;39;21022;31
2022/08/09 04:47:40;;;;;;;6.22;4.32;;;15.50;99.90;;;;;;2603741;54;20093;31
2022/08/09 04:50:34;;;;;;;5.38;3.25;;;15.40;99.90;;;;;;2622563;46;20033;31
2022/08/09 04:53:11;;;;;;;8.50;3.53;;;15.50;99.90;;;;;;2603719;54;20033;31
2022/08/09 04:55:49;;;;;;;5.55;3.30;;;15.50;99.90;;;;;;2603879;54;20885;31
2022/08/09 04:58:35;;;;;;;5.28;4.00;;;15.60;99.90;;;;;;2603776;54;20026;31
2022/08/09 05:01:13;;;;;;;5.35;2.78;;;15.60;99.90;;;;;;2603722;54;20089;31
2022/08/09 05:03:52;;;;;;;7.30;3.38;;;15.70;99.90;;;;;;2603844;54;20909;31
2022/08/09 05:06:33;;;;;;;7.63;3.58;;;15.80;99.90;;;;;;2603957;54;20879;31
2022/08/09 05:09:12;;;;;;;7.68;3.80;;;15.90;99.90;;;;;;2603438;54;20914;31
2022/08/09 05:11:48;;;;;;;4.05;3.25;;;15.90;99.90;;;;;;2603591;54;20046;31
2022/08/09 05:14:30;;;;;;;4.90;3.90;;;16.00;99.90;;;;;;2622175;46;20046;31
2022/08/09 05:17:07;;;;;;;7.85;2.95;;;16.00;99.90;;;;;;2603670;54;21207;31
2022/08/09 05:20:01;;;;;;;7.55;3.60;;;16.10;99.90;;;;;;2603661;54;20023;31
2022/08/09 05:22:36;;;;;;;12.63;3.60;;;16.20;99.90;;;;;;2603756;54;20092;31
2022/08/09 05:25:30;;;;;;;8.77;3.80;;;16.30;99.90;;;;;;2603537;54;20026;31
2022/08/09 05:28:04;;;;;;;6.65;3.17;;;16.40;99.90;;;;;;2702302;39;20998;31
2022/08/09 05:30:44;;;;;;;8.52;3.85;;;16.50;99.90;;;;;;2622024;46;20027;31
2022/08/09 05:33:21;;;;;;;7.70;3.33;;;16.50;99.90;;;;;;2603682;54;20036;31
2022/08/09 05:36:07;;;;;;;7.90;3.80;;;16.60;99.90;;;;;;2603672;54;20027;31
2022/08/09 05:38:42;;;;;;;5.63;3.33;;;16.70;99.90;;;;;;2603555;54;20180;31
2022/08/09 05:41:19;;;;;;;7.00;3.78;;;16.80;99.90;;;;;;2621926;46;20247;31
2022/08/09 05:43:54;;;;;;;4.88;2.90;;;16.90;99.90;;;;;;2603781;54;20926;31
2022/08/09 05:46:35;;;;;;;5.03;3.30;;;17.00;99.90;;;;;;2603478;54;20030;31
2022/08/09 05:49:13;;;;;;;5.35;3.40;;;17.10;99.90;;;;;;2621476;46;20960;31
2022/08/09 05:52:09;;;;;;;6.00;3.17;;;17.20;99.90;;;;;;2603567;54;20046;31
2022/08/09 05:54:45;;;;;;;5.25;3.03;;;17.20;99.90;;;;;;2603410;54;19989;31
2022/08/09 05:57:22;;;;;;;8.25;3.40;;;17.30;99.90;;;;;;2603678;54;20046;31
2022/08/09 06:00:18;;;;;;;15.00;3.95;;;17.40;99.90;;;;;;2603553;54;20038;31
2022/08/09 06:02:58;;;;;;;5.85;2.88;;;17.50;99.90;;;;;;2603918;54;20046;31
2022/08/09 06:05:36;;;;;;;8.30;3.15;;;17.60;99.90;;;;;;2621679;46;20722;31
2022/08/09 06:08:33;;;;;;;5.40;3.20;;;17.70;99.90;;;;;;2603670;54;20842;31
2022/08/09 06:11:13;;;;;;;6.60;2.90;;;17.80;99.90;;;;;;2603163;54;20085;31
2022/08/09 06:13:50;;;;;;;3.85;2.63;;;17.80;99.90;;;;;;2603454;54;20048;31
2022/08/09 06:16:25;;;;;;;6.90;2.88;;;17.80;99.90;;;;;;2603632;54;20023;31
2022/08/09 06:19:04;;;;;;;5.70;3.27;;;17.90;99.90;;;;;;2603515;54;20038;31
2022/08/09 06:21:41;;;;;;;6.22;3.50;;;18.00;99.90;;;;;;2603632;54;20034;31
2022/08/09 06:24:23;;;;;;;5.87;3.60;;;18.10;99.90;;;;;;2622005;46;20031;31
2022/08/09 06:27:00;;;;;;;6.47;3.03;;;18.10;99.90;;;;;;2603256;54;20042;31
2022/08/09 06:29:35;;;;;;;7.67;2.80;;;18.20;99.90;;;;;;2603262;54;20023;31
2022/08/09 06:32:30;;;;;;;4.88;2.60;;;18.30;99.90;;;;;;2603433;54;20034;31
2022/08/09 06:35:27;;;;;;;8.00;3.65;;;18.40;99.90;;;;;;2621560;46;21880;31
2022/08/09 06:38:22;;;;;;;7.85;3.03;;;18.50;99.90;;;;;;2603442;54;20030;31
2022/08/09 06:41:11;;;;;;;4.77;3.00;;;18.50;99.90;;;;;;2603503;54;20034;31
2022/08/09 06:43:52;;;;;;;5.45;2.60;;;18.60;99.90;;;;;;2603554;54;20037;31
2022/08/09 06:46:29;;;;;;;5.40;2.70;;;18.70;99.90;;;;;;2621883;46;20045;31
2022/08/09 06:49:14;;;;;;;13.10;2.88;;;18.70;99.90;;;;;;2603469;54;20052;31
2022/08/09 06:52:13;;;;;;;17.75;4.13;;;18.80;99.90;;;;;;2603306;54;20030;31
2022/08/09 06:54:50;;;;;;;9.30;2.87;;;18.90;99.90;;;;;;2603208;54;20085;31
2022/08/09 06:57:29;;;;;;;5.28;2.42;;;19.00;99.90;;;;;;2603121;54;21074;31
2022/08/09 07:00:24;;;;;;;4.50;2.67;;;19.10;99.90;;;;;;2603345;54;20839;31
2022/08/09 07:03:24;;;;;;;18.98;3.47;;;19.10;99.90;;;;;;2603288;54;20053;31
2022/08/09 07:06:01;;;;;;;6.30;2.13;;;19.20;99.90;;;;;;2603116;54;20085;31
2022/08/09 07:08:41;;;;;;;5.57;2.05;;;19.30;99.90;;;;;;2603445;54;20874;31
2022/08/09 07:11:21;;;;;;;8.95;2.30;;;19.30;99.90;;;;;;2603390;54;20890;31
2022/08/09 07:13:59;;;;;;;6.38;2.72;;;19.40;99.90;;;;;;2604779;47;20929;31
2022/08/09 07:19:32;;;;;;;4.60;2.27;;;19.50;99.90;;;;;;2603167;54;20023;31
2022/08/09 07:22:07;;;;;;;6.05;2.40;;;19.60;99.90;;;;;;2602379;54;20259;31
2022/08/09 07:24:47;;;;;;;6.67;2.77;;;19.60;99.90;;;;;;2622530;46;20137;31
2022/08/09 07:27:26;;;;;;;4.13;2.08;;;19.70;99.90;;;;;;2603057;54;20050;31
2022/08/09 07:30:12;;;;;;;7.43;2.30;;;19.70;99.90;;;;;;2603905;54;20834;31
2022/08/09 07:32:48;;;;;;;10.67;2.83;;;19.80;99.90;;;;;;2622432;46;20027;31
2022/08/09 07:35:25;;;;;;;8.35;2.45;;;19.90;99.90;;;;;;2604125;54;20886;31
2022/08/09 07:38:01;;;;;;;4.15;2.40;;;19.90;99.90;;;;;;2604036;54;20057;31
2022/08/09 07:40:38;;;;;;;6.80;2.40;;;20.00;99.90;;;;;;2604215;54;19934;31
2022/08/09 07:43:33;;;;;;;4.97;2.17;;;20.00;99.90;;;;;;2604160;54;20339;31
2022/08/09 07:46:24;;;;;;;3.13;1.95;;;20.10;99.90;;;;;;2603831;54;20750;31
2022/08/09 07:49:02;;;;;;;7.35;1.92;;;20.20;99.90;;;;;;2604138;54;20032;31
2022/08/09 07:51:38;;;;;;;8.45;2.53;;;20.30;99.90;;;;;;2603874;54;20037;31
2022/08/09 07:54:34;;;;;;;5.72;2.10;;;20.30;99.90;;;;;;2622545;46;20933;31
2022/08/09 07:57:13;;;;;;;4.17;2.03;;;20.40;99.90;;;;;;2604163;54;20064;31
2022/08/09 07:59:47;;;;;;;4.90;2.35;;;20.50;99.90;;;;;;2604126;54;19985;31
2022/08/09 08:02:45;;;;;;;4.45;1.98;;;20.60;99.90;;;;;;2603966;54;20877;31
2022/08/09 08:05:21;;;;;;;2.90;1.95;;;20.70;99.90;;;;;;2603836;54;20026;31
2022/08/09 08:07:57;;;;;;;4.90;1.80;;;20.70;99.90;;;;;;2603767;54;20068;31
2022/08/09 08:10:52;;;;;;;4.60;2.20;;;20.80;99.90;;;;;;2603892;54;21015;31
2022/08/09 08:13:50;;;;;;;4.10;2.13;;;20.90;99.90;;;;;;2603866;54;20124;31
2022/08/09 08:16:30;;;;;;;7.55;2.05;;;21.00;99.90;;;;;;2603941;54;21831;31
2022/08/09 08:19:08;;;;;;;4.25;2.20;;;21.00;99.90;;;;;;2603139;54;20060;31
2022/08/09 08:21:42;;;;;;;8.95;2.40;;;21.10;99.90;;;;;;2604009;54;20026;31
2022/08/09 08:24:27;;;;;;;4.15;2.05;;;21.20;99.90;;;;;;2603434;54;20890;31
2022/08/09 08:27:14;;;;;;;4.50;2.28;;;21.20;99.90;;;;;;2603695;54;20049;31
2022/08/09 08:29:54;;;;;;;4.45;1.98;;;21.30;99.90;;;;;;2604075;54;20037;31
2022/08/09 08:32:29;;;;;;;3.58;1.83;;;21.40;99.90;;;;;;2604037;54;20901;31
2022/08/09 08:35:09;;;;;;;7.07;2.05;;;21.50;99.90;;;;;;2603640;54;20038;31
2022/08/09 08:37:51;;;;;;;6.28;1.88;;;21.60;99.90;;;;;;2603784;54;20045;31
2022/08/09 08:40:36;;;;;;;5.57;2.28;;;21.70;99.90;;;;;;2603760;54;20951;31
2022/08/09 08:43:12;;;;;;;6.00;2.15;;;21.80;99.90;;;;;;2792399;31;20617;31
2022/08/09 08:45:51;;;;;;;;;;;21.90;99.90;;;;;;2702533;39;20536;31
2022/08/09 08:48:47;;;;;;;5.28;2.00;;;22.00;99.90;;;;;;2603710;54;20782;31
2022/08/09 08:51:28;;;;;;;7.28;2.70;;;22.10;99.90;;;;;;2622188;46;20026;31
2022/08/09 08:54:14;;;;;;;7.77;2.80;;;22.20;99.90;;;;;;2603603;54;20081;31
2022/08/09 08:57:01;;;;;;;5.30;2.45;;;22.20;99.90;;;;;;2603708;54;20117;31
2022/08/09 08:59:45;;;;;;;7.85;2.70;;;22.30;99.90;;;;;;2603743;54;20026;31
2022/08/09 09:02:32;;;;;;;5.88;3.10;;;22.40;99.90;;;;;;2622214;46;20026;31
2022/08/09 09:05:10;;;;;;;9.00;3.85;;;22.40;99.90;;;;;;2603738;54;20824;31
2022/08/09 09:07:46;;;;;;;4.97;2.67;;;22.60;99.90;;;;;;2603685;54;20030;31
2022/08/09 09:10:23;;;;;;;10.05;3.08;;;22.70;99.90;;;;;;2603992;54;20597;31
2022/08/09 09:12:59;;;;;;;6.15;3.08;;;22.80;99.90;;;;;;2603823;54;20953;31
2022/08/09 09:15:42;;;;;;;4.13;2.10;;;22.90;99.90;;;;;;2603858;54;20565;31
2022/08/09 09:18:26;;;;;;;6.10;2.00;;;23.00;99.90;;;;;;2603767;54;20870;31
2022/08/09 09:21:03;;;;;;;5.25;2.00;;;23.10;99.90;;;;;;2702249;39;20501;31
2022/08/09 09:23:43;;;;;;;7.38;2.47;;;23.10;99.90;;;;;;2773974;31;21184;31
2022/08/09 09:26:33;;;;;;;5.35;2.00;;;23.30;99.90;;;;;;2603740;54;20030;31
2022/08/09 09:29:09;;;;;;;8.73;1.85;;;23.40;99.90;;;;;;2603447;54;20859;31
2022/08/09 09:31:52;;;;;;;7.82;2.38;;;23.50;99.90;;;;;;2603712;54;20863;31
2022/08/09 09:35:04;;;;;;;10.80;2.90;;;23.60;99.90;;;;;;2603452;54;20828;31
2022/08/09 09:37:43;;;;;;;6.40;1.60;;;23.70;99.90;;;;;;2603443;54;20034;31
2022/08/09 09:40:20;;;;;;;;;;;23.90;99.90;;;;;;2603951;54;20560;31
2022/08/09 09:42:58;;;;;;;4.00;1.00;;;24.00;99.90;;;;;;2622405;46;19941;31
2022/08/09 09:45:35;;;;;;;6.00;1.20;;;24.10;99.90;;;;;;2622044;46;20851;31
2022/08/09 09:48:29;;;;;;;5.20;1.00;;;24.30;99.90;;;;;;2603436;54;20613;31
2022/08/09 09:51:07;;;;;;;3.38;0.95;;;24.40;99.90;;;;;;2603042;54;19949;31
2022/08/09 09:54:06;;;;;;;4.05;1.40;;;24.60;99.90;;;;;;2621899;46;20026;31
2022/08/09 09:56:55;;;;;;;4.65;1.30;;;24.80;99.90;;;;;;2603620;54;20089;31
2022/08/09 09:59:49;;;;;;;4.38;1.38;;;25.10;99.90;;;;;;2603612;54;20030;31
2022/08/09 10:02:25;;;;;;;1.65;0.90;;;25.30;99.90;;;;;;2702283;39;20493;31
2022/08/09 10:05:07;;;;;;;2.08;1.00;;;25.50;99.90;;;;;;2603564;54;20117;31
2022/08/09 10:07:45;;;;;;;1.40;0.90;;;25.80;99.90;;;;;;2603755;54;20026;31
2022/08/09 10:10:42;;;;;;;2.65;0.70;;;25.80;99.90;;;;;;2702206;39;20474;31
2022/08/09 10:13:18;;;;;;;2.97;0.80;;;26.10;99.90;;;;;;2603455;54;20153;31
2022/08/09 10:16:15;;;;;;;6.00;1.02;;;26.10;99.90;;;;;;2603485;54;20955;31
2022/08/09 10:19:10;;;;;;;5.40;1.08;;;26.50;99.90;;;;;;2622207;46;20031;31
2022/08/09 10:21:49;;;;;;;2.70;1.38;;;26.60;99.90;;;;;;2621804;46;20834;31
2022/08/09 10:24:27;;;;;;;3.20;0.90;;;26.80;99.90;;;;;;2622353;46;20857;31
2022/08/09 10:27:10;;;;;;;1.43;0.70;;;26.70;97.80;;;;;;2603684;54;20034;31
2022/08/09 10:29:53;;;;;;;1.88;0.82;;;26.70;98.70;;;;;;2618129;46;20038;31
2022/08/09 10:32:48;;;;;;;3.17;1.05;;;26.70;98.90;;;;;;2603504;54;20886;31
2022/08/09 10:35:25;;;;;;;2.40;1.00;;;26.90;98.90;;;;;;2603412;54;20760;31
2022/08/09 10:38:04;;;;;;;3.55;1.20;;;27.00;99.20;;;;;;2603520;54;20028;31
2022/08/09 10:41:02;;;;;;;5.53;1.83;;;27.20;98.30;;;;;;2603430;54;20947;31
2022/08/09 10:43:37;;;;;;;15.73;2.78;;;27.40;98.80;;;;;;2603426;54;20042;31
2022/08/09 10:46:33;;;;;;;3.45;1.13;;;27.50;97.00;;;;;;2603521;54;20038;31
2022/08/09 10:49:32;;;;;;;4.90;1.60;;;27.60;96.80;;;;;;2603235;54;20022;31
2022/08/09 10:52:36;;;;;;;2.33;1.20;;;27.70;96.20;;;;;;2603222;54;20023;31
2022/08/09 10:55:22;;;;;;;2.33;1.05;;;27.70;96.50;;;;;;2720561;39;20565;31
2022/08/09 10:58:00;;;;;;;4.43;1.27;;;27.70;95.40;;;;;;2603236;54;20927;31
2022/08/09 11:00:40;;;;;;;2.70;1.00;;;27.80;95.60;;;;;;2603536;54;20177;31
2022/08/09 11:03:36;;;;;;;3.17;1.20;;;27.90;95.00;;;;;;2603345;54;20030;31
2022/08/09 11:06:26;;;;;;;3.27;1.40;;;27.90;93.90;;;;;;2603325;54;20108;31
2022/08/09 11:09:02;;;;;;;2.10;0.88;;;27.80;94.40;;;;;;2621683;46;20058;31
2022/08/09 11:12:10;;;;;;;2.95;1.13;;;27.70;94.60;;;;;;2603449;54;20057;31
2022/08/09 11:14:50;;;;;;;2.90;1.40;;;27.80;94.50;;;;;;2621849;46;19946;31
2022/08/09 11:17:51;;;;;;;3.55;1.55;;;27.70;94.80;;;;;;2603559;54;20035;31
2022/08/09 11:20:46;;;;;;;2.13;1.20;;;27.80;94.90;;;;;;2701893;39;20489;31
2022/08/09 11:23:23;;;;;;;4.03;1.10;;;27.80;94.30;;;;;;2603135;54;20992;31
2022/08/09 11:26:02;;;;;;;2.27;1.00;;;27.80;93.30;;;;;;2603311;54;20052;31
2022/08/09 11:28:42;;;;;;;1.67;1.17;;;27.90;93.10;;;;;;2603349;54;20038;31
2022/08/09 11:31:50;;;;;;;2.25;1.50;;;27.80;92.80;;;;;;2603533;54;20125;31
2022/08/09 11:34:37;;;;;;;3.97;1.40;;;27.80;93.30;;;;;;2603193;54;20112;31
2022/08/09 11:37:12;;;;;;;2.42;1.10;;;27.80;93.40;;;;;;2603071;54;20034;31
2022/08/09 11:40:05;;;;;;;4.13;1.50;;;27.80;93.40;;;;;;2603242;54;20057;31
2022/08/09 11:42:40;;;;;;;3.40;1.20;;;27.80;93.20;;;;;;2603233;54;20026;31
2022/08/09 11:45:22;;;;;;;2.55;1.30;;;27.80;93.10;;;;;;2603423;54;20033;31
2022/08/09 11:48:11;;;;;;;1.55;1.35;;;27.70;92.70;;;;;;2603268;54;20736;31
2022/08/09 11:51:07;;;;;;;3.17;1.27;;;27.80;93.40;;;;;;2603515;54;21847;31
2022/08/09 11:54:01;;;;;;;2.65;1.10;;;27.80;93.20;;;;;;2603346;54;20038;31
2022/08/09 11:56:46;;;;;;;3.35;1.20;;;27.80;92.90;;;;;;2603238;54;21306;31
2022/08/09 11:59:26;;;;;;;;;;;27.90;93.10;;;;;;2603355;54;20085;31
2022/08/09 12:02:09;;;;;;;2.05;1.20;;;27.90;92.20;;;;;;2621531;47;19941;31
2022/08/09 12:05:03;;;;;;;2.72;1.30;;;27.80;92.10;;;;;;2701648;39;21172;31
2022/08/09 12:07:42;;;;;;;3.05;1.20;;;27.80;93.30;;;;;;2621210;47;20053;31
2022/08/09 12:10:19;;;;;;;4.13;1.60;;;27.90;93.30;;;;;;2603519;54;20031;31
2022/08/09 12:13:14;;;;;;;3.35;1.10;;;27.80;92.90;;;;;;2603838;54;20092;31
2022/08/09 12:16:09;;;;;;;;;;;27.90;91.70;;;;;;2604282;54;20811;31
2022/08/09 12:19:04;;;;;;;3.40;1.23;;;27.90;91.70;;;;;;2603758;54;19990;31
2022/08/09 12:21:42;;;;;;;1.80;1.17;;;27.80;91.70;;;;;;2603880;54;20037;31
2022/08/09 12:24:26;;;;;;;3.03;1.08;;;27.80;92.00;;;;;;2622640;46;20027;31
2022/08/09 12:27:03;;;;;;;5.05;1.40;;;27.80;92.90;;;;;;2603771;54;20124;31
2022/08/09 12:30:02;;;;;;;3.55;1.65;;;28.00;92.60;;;;;;2603916;54;20026;31
2022/08/09 12:33:05;;;;;;;2.83;1.20;;;27.90;92.90;;;;;;2603794;54;20939;31
2022/08/09 12:35:40;;;;;;;2.00;1.20;;;27.90;93.20;;;;;;2603880;54;20627;31
2022/08/09 12:38:22;;;;;;;;;;;27.80;92.60;;;;;;2604073;54;20026;31
2022/08/09 12:41:13;;;;;;;6.40;1.27;;;27.60;92.20;;;;;;2702704;39;22086;31
2022/08/09 12:43:49;;;;;;;110.43;10.20;;;27.30;92.50;;;;;;2622497;46;20033;31
2022/08/09 12:46:43;;;;;;;8.82;2.17;;;27.30;93.10;;;;;;2622493;46;20877;31
2022/08/09 12:49:23;;;;;;;4.50;1.23;;;27.20;92.80;;;;;;2603652;54;20935;31
2022/08/09 12:52:01;;;;;;;3.42;1.00;;;27.30;92.30;;;;;;2602999;54;20108;31
2022/08/09 12:54:50;;;;;;;6.53;1.43;;;27.30;91.90;;;;;;2622248;46;20033;31
2022/08/09 12:57:48;;;;;;;4.93;1.40;;;27.30;91.10;;;;;;2622630;46;20880;31
2022/08/09 13:00:31;;;;;;;2.55;1.20;;;27.40;91.70;;;;;;2622213;46;20031;31
2022/08/09 13:03:07;;;;;;;3.45;1.00;;;27.40;91.10;;;;;;2603624;54;20027;31
2022/08/09 13:06:01;;;;;;;3.05;1.17;;;27.40;91.70;;;;;;2603725;54;20085;31
2022/08/09 13:08:59;;;;;;;3.13;1.48;;;27.50;91.50;;;;;;2603802;54;20870;31
2022/08/09 13:11:38;;;;;;;3.03;1.13;;;27.60;91.90;;;;;;2603498;54;20026;31
2022/08/09 13:14:21;;;;;;;4.57;1.48;;;27.60;92.20;;;;;;2702237;39;20413;31
2022/08/09 13:17:18;;;;;;;3.20;1.20;;;27.50;91.80;;;;;;2603672;54;20922;31
2022/08/09 13:20:14;;;;;;;4.53;1.40;;;27.30;91.90;;;;;;2622064;46;20896;31
2022/08/09 13:22:59;;;;;;;4.95;1.42;;;27.20;91.50;;;;;;2603791;54;20050;31
2022/08/09 13:25:53;;;;;;;2.40;1.50;;;27.10;91.10;;;;;;2622164;46;20029;31
2022/08/09 13:28:29;;;;;;;;;;;27.00;91.60;;;;;;2603941;54;20050;31
2022/08/09 13:31:16;;;;;;;4.60;1.60;;;26.90;92.40;;;;;;2603453;54;19934;31
2022/08/09 13:34:11;;;;;;;3.85;1.70;;;26.90;91.70;;;;;;2603833;54;20826;31
2022/08/09 13:36:48;;;;;;;4.80;1.70;;;26.90;90.80;;;;;;2603519;54;20043;31
2022/08/09 13:39:24;;;;;;;5.40;1.70;;;27.00;92.00;;;;;;2603716;54;20869;31
2022/08/09 13:42:21;;;;;;;10.35;1.65;;;27.00;93.50;;;;;;2603619;54;20039;31
2022/08/09 13:44:57;;;;;;;5.50;1.75;;;27.00;92.50;;;;;;2622294;46;20800;31
2022/08/09 13:47:34;;;;;;;5.10;1.83;;;27.00;92.60;;;;;;2603804;54;20033;31
2022/08/09 13:50:24;;;;;;;7.45;1.67;;;26.80;93.00;;;;;;2603487;54;20902;31
2022/08/09 13:53:04;;;;;;;5.50;1.70;;;26.60;93.30;;;;;;2603853;54;20038;31
2022/08/09 13:55:40;;;;;;;3.28;1.67;;;26.60;93.90;;;;;;2603716;54;20026;31
2022/08/09 13:58:17;;;;;;;4.03;1.52;;;26.40;93.50;;;;;;2603692;54;20912;31
2022/08/09 14:00:54;;;;;;;3.95;1.65;;;26.30;93.70;;;;;;2603525;54;20896;31
2022/08/09 14:03:31;;;;;;;6.38;1.70;;;26.20;93.90;;;;;;2603725;54;20094;31
2022/08/09 14:06:27;;;;;;;4.47;1.60;;;26.20;94.00;;;;;;2621931;46;20050;31
2022/08/09 14:09:04;;;;;;;4.43;1.50;;;26.00;94.00;;;;;;2603660;54;20901;31
2022/08/09 14:11:39;;;;;;;9.98;1.83;;;26.00;94.20;;;;;;2603757;54;20828;31
2022/08/09 14:14:20;;;;;;;5.80;2.00;;;25.90;94.10;;;;;;2701982;39;20547;31
2022/08/09 14:17:01;;;;;;;3.50;1.80;;;25.90;94.30;;;;;;2603672;54;20161;31
2022/08/09 14:19:39;;;;;;;2.43;1.60;;;25.90;94.40;;;;;;2603320;54;20026;31
2022/08/09 14:22:13;;;;;;;4.25;1.45;;;25.90;94.50;;;;;;2603592;54;20033;31
2022/08/09 14:24:52;;;;;;;21.40;2.20;;;25.90;94.70;;;;;;2603460;54;20026;31